createdAt,value
2019-04-03T00:00:34.168Z,37.01
2019-04-03T00:05:31.754Z,36.94
2019-04-03T00:10:29.380Z,36.97
2019-04-03T00:15:26.483Z,36.76
2019-04-03T00:20:23.441Z,38.37
2019-04-03T00:25:21.968Z,38.17
2019-04-03T00:30:21.858Z,39.06
2019-04-03T00:35:18.217Z,39.70
2019-04-03T00:40:15.267Z,38.94
2019-04-03T00:45:12.371Z,41.23
2019-04-03T00:50:09.517Z,40.30
2019-04-03T00:55:06.548Z,40.82
2019-04-03T01:00:15.092Z,41.67
2019-04-03T01:05:12.240Z,41.30
2019-04-03T01:10:09.424Z,40.32
2019-04-03T01:15:07.377Z,40.91
2019-04-03T01:20:07.788Z,42.28
2019-04-03T01:25:08.293Z,43.35
2019-04-03T01:30:06.862Z,43.35
2019-04-03T01:35:04.710Z,42.74
2019-04-03T01:40:03.115Z,43.29
2019-04-03T01:45:00.107Z,42.80
2019-04-03T01:49:58.541Z,43.90
2019-04-03T01:54:55.977Z,42.58
2019-04-03T01:59:53.046Z,43.67
2019-04-03T02:04:50.002Z,44.67
2019-04-03T02:09:47.281Z,44.33
2019-04-03T02:14:44.469Z,44.21
2019-04-03T02:19:41.545Z,44.26
2019-04-03T02:24:38.687Z,45.19
2019-04-03T02:29:35.870Z,45.37
2019-04-03T02:34:34.861Z,46.60
2019-04-03T02:39:31.825Z,45.63
2019-04-03T02:44:29.145Z,44.42
2019-04-03T02:49:27.509Z,47.18
2019-04-03T02:54:29.150Z,47.16
2019-04-03T02:59:26.903Z,46.19
2019-04-03T03:04:24.875Z,45.28
2019-04-03T03:09:21.980Z,45.48
2019-04-03T03:14:19.296Z,45.12
2019-04-03T03:19:16.561Z,47.09
2019-04-03T03:24:14.243Z,47.49
2019-04-03T03:29:17.686Z,45.95
2019-04-03T03:34:10.472Z,45.60
2019-04-03T03:39:10.420Z,45.60
2019-04-03T03:44:09.804Z,44.39
2019-04-03T03:49:05.473Z,46.13
2019-04-03T03:54:03.178Z,47.08
2019-04-03T03:59:00.329Z,44.60
2019-04-03T04:03:57.920Z,45.91
2019-04-03T04:08:54.895Z,45.68
2019-04-03T04:13:52.226Z,45.31
2019-04-03T04:18:49.405Z,44.78
2019-04-03T04:23:46.601Z,45.36
2019-04-03T04:28:44.102Z,45.16
2019-04-03T04:33:41.201Z,44.54
2019-04-03T04:38:38.212Z,46.52
2019-04-03T04:43:35.463Z,46.27
2019-04-03T04:48:32.497Z,46.63
2019-04-03T04:53:30.216Z,46.98
2019-04-03T04:58:27.240Z,47.68
2019-04-03T05:03:24.269Z,47.42
2019-04-03T05:08:21.524Z,46.50
2019-04-03T05:13:18.606Z,45.96
2019-04-03T05:18:15.601Z,42.64
2019-04-03T05:23:12.604Z,43.62
2019-04-03T05:28:09.557Z,42.27
2019-04-03T05:33:09.053Z,41.68
2019-04-03T05:38:06.773Z,40.16
2019-04-03T05:43:04.229Z,36.63
2019-04-03T05:48:01.345Z,35.39
2019-04-03T05:52:58.532Z,34.01
2019-04-03T05:57:55.543Z,34.09
2019-04-03T06:02:53.715Z,33.68
2019-04-03T06:07:51.262Z,33.78
2019-04-03T06:12:54.688Z,34.13
2019-04-03T06:17:55.112Z,36.30
2019-04-03T06:22:52.594Z,34.37
2019-04-03T06:27:49.656Z,34.96
2019-04-03T06:32:50.333Z,35.47
2019-04-03T06:37:48.122Z,32.44
2019-04-03T06:42:45.639Z,31.75
2019-04-03T06:47:43.899Z,31.72
2019-04-03T06:52:40.986Z,31.32
2019-04-03T06:57:39.497Z,31.59
2019-04-03T07:02:36.897Z,31.84
2019-04-03T07:07:36.828Z,32.93
2019-04-03T07:12:35.885Z,30.91
2019-04-03T07:17:33.053Z,30.21
2019-04-03T07:22:32.215Z,29.27
2019-04-03T07:27:36.493Z,28.54
2019-04-03T07:32:35.710Z,28.78
2019-04-03T07:37:33.884Z,27.21
2019-04-03T07:42:32.110Z,27.36
2019-04-03T07:47:29.345Z,26.97
2019-04-03T07:52:30.514Z,26.85
2019-04-03T07:57:29.263Z,26.55
2019-04-03T08:02:26.931Z,28.13
2019-04-03T08:07:24.080Z,26.83
2019-04-03T08:12:21.184Z,25.83
2019-04-03T08:17:20.068Z,25.61
2019-04-03T08:22:20.780Z,24.68
2019-04-03T08:27:18.209Z,24.06
2019-04-03T08:32:18.420Z,24.70
2019-04-03T08:37:27.670Z,21.57
2019-04-03T08:42:19.303Z,24.45
2019-04-03T08:47:21.074Z,23.39
2019-04-03T08:52:18.130Z,20.65
2019-04-03T08:57:19.778Z,22.82
2019-04-03T09:02:16.187Z,22.22
2019-04-03T09:07:13.335Z,22.41
2019-04-03T09:12:10.916Z,22.01
2019-04-03T09:17:09.960Z,20.15
2019-04-03T09:22:09.951Z,19.68
2019-04-03T09:27:10.058Z,21.96
2019-04-03T09:32:09.614Z,19.45
2019-04-03T09:37:07.197Z,19.35
2019-04-03T09:42:04.452Z,19.91
2019-04-03T09:47:05.352Z,21.30
2019-04-03T09:52:04.874Z,22.13
2019-04-03T09:57:04.896Z,22.09
2019-04-03T10:02:01.111Z,21.62
2019-04-03T10:06:59.730Z,20.55
2019-04-03T10:11:57.889Z,20.65
2019-04-03T10:16:57.401Z,20.13
2019-04-03T10:21:54.943Z,21.66
2019-04-03T10:26:56.389Z,19.52
2019-04-03T10:31:55.789Z,19.59
2019-04-03T10:36:52.753Z,21.27
2019-04-03T10:41:49.924Z,19.32
2019-04-03T10:46:49.380Z,21.74
2019-04-03T10:51:46.010Z,20.85
2019-04-03T10:56:44.260Z,20.51
2019-04-03T11:01:44.391Z,20.67
2019-04-03T11:06:41.529Z,21.29
2019-04-03T11:11:39.019Z,21.73
2019-04-03T11:16:39.136Z,20.87
2019-04-03T11:21:36.561Z,20.71
2019-04-03T11:26:36.196Z,22.47
2019-04-03T11:31:39.295Z,21.31
2019-04-03T11:36:33.189Z,21.24
2019-04-03T11:41:32.355Z,20.72
2019-04-03T11:46:32.127Z,20.43
2019-04-03T11:51:33.785Z,21.32
2019-04-03T11:56:31.959Z,21.69
2019-04-03T12:01:30.291Z,19.73
2019-04-03T12:06:27.455Z,20.89
2019-04-03T12:11:24.861Z,19.87
2019-04-03T12:16:24.059Z,20.37
2019-04-03T12:21:21.351Z,21.18
2019-04-03T12:26:22.393Z,20.19
2019-04-03T12:31:19.586Z,19.17
2019-04-03T12:36:16.996Z,19.16
2019-04-03T12:41:14.584Z,19.97
2019-04-03T12:46:13.628Z,19.97
2019-04-03T12:51:11.059Z,19.35
2019-04-03T12:56:08.707Z,19.35
2019-04-03T13:01:11.324Z,20.33
2019-04-03T13:06:04.969Z,20.51
2019-04-03T13:11:03.941Z,20.36
2019-04-03T13:16:00.996Z,20.34
2019-04-03T13:20:58.323Z,19.85
2019-04-03T13:25:55.497Z,19.84
2019-04-03T13:30:53.114Z,20.16
2019-04-03T13:35:51.320Z,19.97
2019-04-03T13:40:48.720Z,21.11
2019-04-03T13:45:47.098Z,20.53
2019-04-03T13:50:46.709Z,20.50
2019-04-03T13:55:45.631Z,21.24
2019-04-03T14:00:58.625Z,20.78
2019-04-03T14:05:52.438Z,20.94
2019-04-03T14:10:50.089Z,21.55
2019-04-03T14:15:47.104Z,21.23
2019-04-03T14:20:44.210Z,21.41
2019-04-03T14:25:42.071Z,21.11
2019-04-03T14:30:39.459Z,21.09
2019-04-03T14:35:48.964Z,21.28
2019-04-03T14:40:36.036Z,20.85
2019-04-03T14:45:33.258Z,21.03
2019-04-03T14:50:30.522Z,22.27
2019-04-03T14:55:28.686Z,21.54
2019-04-03T15:00:30.296Z,21.64
2019-04-03T15:05:25.346Z,21.33
2019-04-03T15:10:22.462Z,22.34
2019-04-03T15:15:20.246Z,22.35
2019-04-03T15:20:19.178Z,22.98
2019-04-03T15:25:19.605Z,22.81
2019-04-03T15:30:16.242Z,23.00
2019-04-03T15:35:13.618Z,23.13
2019-04-03T15:40:11.461Z,23.79
2019-04-03T15:45:09.211Z,22.86
2019-04-03T15:50:12.244Z,23.06
2019-04-03T15:55:10.856Z,23.15
2019-04-03T16:00:15.166Z,23.24
2019-04-03T16:05:14.024Z,23.14
2019-04-03T16:10:11.792Z,23.41
2019-04-03T16:15:09.772Z,23.44
2019-04-03T16:20:08.386Z,24.51
2019-04-03T16:25:09.783Z,24.28
2019-04-03T16:30:09.856Z,24.58
2019-04-03T16:35:07.909Z,24.19
2019-04-03T16:40:06.811Z,24.10
2019-04-03T16:45:09.427Z,24.21
2019-04-03T16:50:07.978Z,24.87
2019-04-03T16:55:06.168Z,25.08
2019-04-03T17:00:08.464Z,25.12
2019-04-03T17:05:06.792Z,25.33
2019-04-03T17:10:05.878Z,25.23
2019-04-03T17:15:07.207Z,26.05
2019-04-03T17:20:06.135Z,25.14
2019-04-03T17:25:05.998Z,25.70
2019-04-03T17:30:07.131Z,25.38
2019-04-03T17:35:07.738Z,26.15
2019-04-03T17:40:11.562Z,25.90
2019-04-03T17:45:08.923Z,26.58
2019-04-03T17:50:07.737Z,26.73
2019-04-03T17:55:09.909Z,27.44
2019-04-03T18:00:12.376Z,28.10
2019-04-03T18:05:10.624Z,27.94
2019-04-03T18:10:12.042Z,28.37
2019-04-03T18:15:08.642Z,28.72
2019-04-03T18:20:06.532Z,28.56
2019-04-03T18:25:08.060Z,30.59
2019-04-03T18:30:11.154Z,30.28
2019-04-03T18:35:09.240Z,30.03
2019-04-03T18:40:08.768Z,32.22
2019-04-03T18:45:06.312Z,32.38
2019-04-03T18:50:05.019Z,32.74
2019-04-03T18:55:05.184Z,31.85
2019-04-03T19:00:04.144Z,32.10
2019-04-03T19:05:02.593Z,31.74
2019-04-03T19:10:07.003Z,31.15
2019-04-03T19:14:58.791Z,31.79
2019-04-03T19:20:09.763Z,32.69
2019-04-03T19:24:58.728Z,35.17
2019-04-03T19:29:57.440Z,35.27
2019-04-03T19:34:55.497Z,34.27
2019-04-03T19:39:52.625Z,35.42
2019-04-03T19:44:49.868Z,38.36
2019-04-03T19:49:48.113Z,38.08
2019-04-03T19:54:45.414Z,38.65
2019-04-03T19:59:42.347Z,36.69
2019-04-03T20:04:39.384Z,37.38
2019-04-03T20:09:36.349Z,36.91
2019-04-03T20:14:33.369Z,38.37
2019-04-03T20:19:30.334Z,38.64
2019-04-03T20:24:27.362Z,37.49
2019-04-03T20:29:27.474Z,38.70
2019-04-03T20:34:23.664Z,37.74
2019-04-03T20:39:20.695Z,37.17
2019-04-03T20:44:17.763Z,37.42
2019-04-03T20:49:14.704Z,38.28
2019-04-03T20:54:12.035Z,37.68
2019-04-03T20:59:12.015Z,38.11
2019-04-03T21:04:08.254Z,38.16
2019-04-03T21:09:06.245Z,37.10
2019-04-03T21:14:05.568Z,38.20
2019-04-03T21:19:02.769Z,37.06
2019-04-03T21:23:59.868Z,38.16
2019-04-03T21:28:57.014Z,38.20
2019-04-03T21:33:55.108Z,36.53
2019-04-03T21:38:52.247Z,37.45
2019-04-03T21:43:49.285Z,37.60
2019-04-03T21:48:46.237Z,38.77
2019-04-03T21:53:43.788Z,36.82
2019-04-03T21:58:41.805Z,37.07
2019-04-03T22:03:38.820Z,37.36
2019-04-03T22:08:35.873Z,37.91
2019-04-03T22:13:32.909Z,37.95
2019-04-03T22:18:31.100Z,37.20
2019-04-03T22:23:29.208Z,37.66
2019-04-03T22:28:26.167Z,38.44
2019-04-03T22:33:25.911Z,38.74
2019-04-03T22:38:24.631Z,39.09
2019-04-03T22:43:22.567Z,39.35
2019-04-03T22:48:19.582Z,39.18
2019-04-03T22:53:16.678Z,39.30
2019-04-03T22:58:13.657Z,40.82
2019-04-03T23:03:13.296Z,39.60
2019-04-03T23:08:09.509Z,40.73
2019-04-03T23:13:07.893Z,39.90
2019-04-03T23:18:04.998Z,40.49
2019-04-03T23:23:02.051Z,40.38
2019-04-03T23:27:59.162Z,39.66
2019-04-03T23:32:58.501Z,39.43
2019-04-03T23:37:55.905Z,39.97
2019-04-03T23:42:53.450Z,40.22
2019-04-03T23:47:51.273Z,40.91
2019-04-03T23:52:48.786Z,41.01
2019-04-03T23:57:45.725Z,42.18
